Wiscasset, ME

2:46 PM EDT on July 05, 2015 (GMT -0400)
Acorn Road | | Change Station
CLOSE
Current Station
Personal Weather Station
Location: Wiscasset, ME
Elevation: 144 ft
Nearby Weather Stations

Elev 144 ft 44.00 °N, 69.70 °W | Updated 36 seconds ago

Scattered Clouds
Scattered Clouds
77.7 °F
Feels Like 80 °F
N
0.0
Wind Variable Wind from North
Gusts 1.0 mph

Today
High -- | Low -- °F
--% Chance of Precip.
Yesterday
High -- | Low -- °F
Precip. -- in
5:02 AM 8:24 PM
Waning Gibbous, 83% visible
Pressure 30.02 in
Visibility 10.0 miles
Clouds Few 4900 ft
Scattered Clouds 6000 ft
Heat Index 80 °F
Dew Point 65 °F
Humidity 65%
Rainfall 0.00 in
Snow Depth Not available.
UV 9 out of 12
Pollen 5.00 out of 12
Air Quality Not available.
Flu Activity Not available.
METAR KIWI 051753Z AUTO 28004KT 10SM FEW049 SCT060 27/16 A3002 RMK AO2 SLP164 T02720156 10278 20172 58002

More Conditions Fewer Conditions

Pressure 30.02 in
Visibility 10.0 miles
Clouds Few 4900 ft
Scattered Clouds 6000 ft
Heat Index 80 °F
Dew Point 65 °F
Humidity 65%
Rainfall 0.00 in
Snow Depth Not available.
UV 9 out of 12
Pollen 5.00 out of 12
Air Quality Not available.
Flu Activity Not available.
METAR KIWI 051753Z AUTO 28004KT 10SM FEW049 SCT060 27/16 A3002 RMK AO2 SLP164 T02720156 10278 20172 58002

More Conditions Fewer Conditions

10-Day Weather Forecast

×

Almanac

Astronomy

Jul. 05, 2015 Rise Set
Actual Time
Civil Twilight
Nautical Twilight
Astronomical Twilight
Moon
Length of Visible Light
Length of Day
Tomorrow will be .
, % of the Moon is Illuminated

Today's Extremes

State Highs State Lows

Community

WunderPhotos

Upload Photos

1,835,346 photos uploaded!

WunderBlogs® & News

Nearby

Air Quality

  Air Quality AQ Index Pollutant
Not available.

Snow Depth

Station Depth Elevation

Earthquake Activity

City Distance Mag. Time & Date
Minimum magnitude displayed is 2.5.

Coastal Water Temperatures

Place Temperature

Stations

Nearby Weather Stations

Station Location Temp. Windchill Dew Point Humidity Wind Precip. Elev Updated Type